createdAt,value
2023-03-11T00:00:39.227Z,0.90
2023-03-11T00:03:08.163Z,0.88
2023-03-11T00:05:38.334Z,0.90
2023-03-11T00:08:06.854Z,0.89
2023-03-11T00:10:41.914Z,0.93
2023-03-11T00:13:11.180Z,0.90
2023-03-11T00:15:40.117Z,0.87
2023-03-11T00:18:06.814Z,0.81
2023-03-11T00:20:39.528Z,0.80
2023-03-11T00:23:07.963Z,0.76
2023-03-11T00:25:36.403Z,0.76
2023-03-11T00:28:03.574Z,0.75
2023-03-11T00:30:30.150Z,0.77
2023-03-11T00:32:58.581Z,0.77
2023-03-11T00:35:28.180Z,0.77
2023-03-11T00:37:57.476Z,0.78
2023-03-11T00:40:25.607Z,0.81
2023-03-11T00:42:52.716Z,0.84
2023-03-11T00:45:19.407Z,0.87
2023-03-11T00:47:45.861Z,0.91
2023-03-11T00:50:18.120Z,0.96
2023-03-11T00:52:46.737Z,1.00
2023-03-11T00:55:15.656Z,1.01
2023-03-11T00:57:43.263Z,1.03
2023-03-11T01:00:15.163Z,1.06
2023-03-11T01:02:41.651Z,1.05
2023-03-11T01:05:08.428Z,1.05
2023-03-11T01:07:34.834Z,1.04
2023-03-11T01:10:01.909Z,1.05
2023-03-11T01:12:28.452Z,1.06
2023-03-11T01:14:54.922Z,1.08
2023-03-11T01:17:22.215Z,1.08
2023-03-11T01:19:50.200Z,1.05
2023-03-11T01:22:16.819Z,1.04
2023-03-11T01:24:43.439Z,1.02
2023-03-11T01:27:09.823Z,1.02
2023-03-11T01:29:36.258Z,0.97
2023-03-11T01:32:02.789Z,0.97
2023-03-11T01:34:29.266Z,1.01
2023-03-11T01:36:55.653Z,1.03
2023-03-11T01:39:22.074Z,1.02
2023-03-11T01:41:48.509Z,1.00
2023-03-11T01:44:14.894Z,0.96
2023-03-11T01:46:53.756Z,0.96
2023-03-11T01:49:22.262Z,0.96
2023-03-11T01:51:52.085Z,0.93
2023-03-11T01:54:21.844Z,0.90
2023-03-11T01:56:50.246Z,0.88
2023-03-11T01:59:22.646Z,0.86
2023-03-11T02:01:56.892Z,0.84
2023-03-11T02:04:23.372Z,0.85
2023-03-11T02:06:51.417Z,0.89
2023-03-11T02:09:18.832Z,0.88
2023-03-11T02:11:45.332Z,0.87
2023-03-11T02:14:11.771Z,0.87
2023-03-11T02:16:38.285Z,0.87
2023-03-11T02:19:22.515Z,0.89
2023-03-11T02:21:49.592Z,0.87
2023-03-11T02:24:42.298Z,0.89
2023-03-11T02:27:12.935Z,0.88
2023-03-11T02:29:41.734Z,0.90
2023-03-11T02:32:10.224Z,0.90
2023-03-11T02:34:39.440Z,0.88
2023-03-11T02:37:11.256Z,0.88
2023-03-11T02:39:47.250Z,0.88
2023-03-11T02:42:16.851Z,0.84
2023-03-11T02:44:47.560Z,0.87
2023-03-11T02:47:15.255Z,0.89
2023-03-11T02:49:41.736Z,0.88
2023-03-11T02:52:08.240Z,0.92
2023-03-11T02:54:34.717Z,0.94
2023-03-11T02:57:01.135Z,0.93
2023-03-11T02:59:27.851Z,0.92
2023-03-11T03:01:54.419Z,0.87
2023-03-11T03:04:20.825Z,0.81
2023-03-11T03:06:47.248Z,0.78
2023-03-11T03:09:13.684Z,0.76
2023-03-11T03:11:40.145Z,0.78
2023-03-11T03:14:06.589Z,0.76
2023-03-11T03:16:32.999Z,0.74
2023-03-11T03:18:59.531Z,0.72
2023-03-11T03:21:26.178Z,0.69
2023-03-11T03:23:52.695Z,0.61
2023-03-11T03:26:19.787Z,0.54
2023-03-11T03:28:46.394Z,0.49
2023-03-11T03:31:12.870Z,0.51
2023-03-11T03:33:39.539Z,0.46
2023-03-11T03:36:11.374Z,0.43
2023-03-11T03:38:37.842Z,0.40
2023-03-11T03:41:04.611Z,0.38
2023-03-11T03:43:31.147Z,0.36
2023-03-11T03:46:03.038Z,0.37
2023-03-11T03:48:30.118Z,0.31
2023-03-11T03:50:56.935Z,0.29
2023-03-11T03:53:23.534Z,0.26
2023-03-11T03:55:50.845Z,0.23
2023-03-11T03:58:17.322Z,0.23
2023-03-11T04:00:43.723Z,0.25
2023-03-11T04:03:10.167Z,0.26
2023-03-11T04:05:36.616Z,0.29
2023-03-11T04:08:03.112Z,0.28
2023-03-11T04:10:29.564Z,0.28
2023-03-11T04:12:55.955Z,0.24
2023-03-11T04:15:22.471Z,0.22
2023-03-11T04:17:48.847Z,0.19
2023-03-11T04:20:15.380Z,0.17
2023-03-11T04:22:41.836Z,0.14
2023-03-11T04:25:08.599Z,0.13
2023-03-11T04:27:35.036Z,0.15
2023-03-11T04:30:01.598Z,0.13
2023-03-11T04:32:28.013Z,0.12
2023-03-11T04:34:54.431Z,0.10
2023-03-11T04:37:20.872Z,0.07
2023-03-11T04:39:47.403Z,0.05
2023-03-11T04:42:14.118Z,0.07
2023-03-11T04:44:40.634Z,0.09
2023-03-11T04:47:07.248Z,0.05
2023-03-11T04:49:33.707Z,0.05
2023-03-11T04:52:00.159Z,0.06
2023-03-11T04:54:26.572Z,0.05
2023-03-11T04:56:52.934Z,0.04
2023-03-11T04:59:19.376Z,0.03
2023-03-11T05:01:45.793Z,0.02
2023-03-11T05:04:12.894Z,-0.01
2023-03-11T05:06:39.445Z,-0.03
2023-03-11T05:09:05.937Z,-0.05
2023-03-11T05:11:32.367Z,-0.09
2023-03-11T05:13:58.838Z,-0.13
2023-03-11T05:16:25.312Z,-0.16
2023-03-11T05:18:51.814Z,-0.16
2023-03-11T05:21:18.257Z,-0.17
2023-03-11T05:23:45.379Z,-0.19
2023-03-11T05:26:12.366Z,-0.19
2023-03-11T05:28:38.794Z,-0.24
2023-03-11T05:31:09.495Z,-0.29
2023-03-11T05:33:36.298Z,-0.38
2023-03-11T05:36:08.435Z,-0.38
2023-03-11T05:38:36.472Z,-0.38
2023-03-11T05:41:02.918Z,-0.38
2023-03-11T05:43:29.387Z,-0.38
2023-03-11T05:45:55.854Z,-0.38
2023-03-11T05:48:22.365Z,-0.45
2023-03-11T05:50:49.284Z,-0.46
2023-03-11T05:53:15.694Z,-0.43
2023-03-11T05:55:42.067Z,-0.49
2023-03-11T05:58:08.577Z,-0.54
2023-03-11T06:00:35.040Z,-0.54
2023-03-11T06:03:01.520Z,-0.59
2023-03-11T06:05:28.031Z,-0.65
2023-03-11T06:07:54.460Z,-0.66
2023-03-11T06:10:20.851Z,-0.68
2023-03-11T06:12:47.215Z,-0.71
2023-03-11T06:15:13.662Z,-0.75
2023-03-11T06:17:40.097Z,-0.76
2023-03-11T06:20:07.371Z,-0.73
2023-03-11T06:22:33.850Z,-0.75
2023-03-11T06:25:00.309Z,-0.81
2023-03-11T06:27:26.826Z,-0.87
2023-03-11T06:29:54.382Z,-0.91
2023-03-11T06:32:20.842Z,-0.95
2023-03-11T06:34:51.602Z,-0.94
2023-03-11T06:37:18.557Z,-0.95
2023-03-11T06:39:44.970Z,-0.95
2023-03-11T06:42:12.169Z,-0.94
2023-03-11T06:44:38.998Z,-0.92
2023-03-11T06:47:05.620Z,-0.90
2023-03-11T06:49:32.034Z,-0.90
2023-03-11T06:51:58.421Z,-0.90
2023-03-11T06:54:24.874Z,-0.90
2023-03-11T06:56:51.264Z,-0.89
2023-03-11T06:59:17.686Z,-0.85
2023-03-11T07:01:44.166Z,-0.77
2023-03-11T07:04:10.796Z,-0.71
2023-03-11T07:06:37.223Z,-0.63
2023-03-11T07:09:04.005Z,-0.51
2023-03-11T07:11:30.446Z,-0.37
2023-03-11T07:13:56.873Z,-0.22
2023-03-11T07:16:26.507Z,-0.02
2023-03-11T07:18:55.664Z,0.23
2023-03-11T07:21:23.418Z,0.40
2023-03-11T07:23:57.571Z,0.68
2023-03-11T07:26:25.708Z,0.91
2023-03-11T07:28:54.337Z,1.17
2023-03-11T07:31:24.223Z,1.28
2023-03-11T07:33:51.459Z,1.27
2023-03-11T07:36:20.580Z,1.37
2023-03-11T07:38:47.511Z,1.63
2023-03-11T07:41:15.408Z,1.94
2023-03-11T07:43:43.178Z,2.18
2023-03-11T07:46:18.925Z,2.24
2023-03-11T07:48:45.831Z,2.26
2023-03-11T07:51:19.399Z,2.24
2023-03-11T07:53:46.750Z,2.23
2023-03-11T07:56:15.280Z,2.46
2023-03-11T07:58:44.543Z,2.67
2023-03-11T08:01:17.822Z,3.09
2023-03-11T08:03:45.933Z,3.49
2023-03-11T08:06:14.545Z,3.74
2023-03-11T08:08:41.427Z,3.67
2023-03-11T08:11:07.976Z,3.70
2023-03-11T08:13:34.459Z,3.71
2023-03-11T08:16:05.018Z,3.69
2023-03-11T08:18:31.623Z,3.80
2023-03-11T08:20:58.916Z,3.73
2023-03-11T08:23:25.343Z,3.43
2023-03-11T08:25:51.771Z,3.54
2023-03-11T08:28:18.219Z,3.75
2023-03-11T08:30:44.679Z,3.93
2023-03-11T08:33:11.064Z,4.13
2023-03-11T08:35:37.751Z,4.33
2023-03-11T08:38:04.426Z,4.39
2023-03-11T08:40:30.820Z,4.60
2023-03-11T08:42:57.266Z,4.89
2023-03-11T08:45:23.958Z,5.15
2023-03-11T08:47:50.648Z,5.19
2023-03-11T08:50:19.432Z,4.97
2023-03-11T08:52:46.066Z,4.97
2023-03-11T08:55:24.941Z,5.08
2023-03-11T08:57:51.622Z,5.25
2023-03-11T09:00:18.551Z,5.37
2023-03-11T09:02:45.034Z,5.38
2023-03-11T09:05:11.534Z,5.23
2023-03-11T09:07:38.036Z,5.39
2023-03-11T09:10:05.518Z,5.86
2023-03-11T09:12:32.002Z,5.88
2023-03-11T09:14:58.895Z,6.05
2023-03-11T09:17:25.387Z,6.23
2023-03-11T09:19:51.856Z,6.20
2023-03-11T09:22:18.497Z,5.82
2023-03-11T09:24:44.887Z,5.46
2023-03-11T09:27:12.952Z,5.31
2023-03-11T09:29:39.582Z,5.40
2023-03-11T09:32:06.533Z,5.61
2023-03-11T09:34:32.995Z,5.80
2023-03-11T09:37:00.992Z,5.53
2023-03-11T09:39:27.418Z,5.42
2023-03-11T09:41:59.417Z,5.36
2023-03-11T09:45:17.568Z,5.39
2023-03-11T09:48:22.798Z,5.98
2023-03-11T09:51:08.335Z,6.47
2023-03-11T09:53:43.388Z,6.68
2023-03-11T09:56:13.281Z,6.74
2023-03-11T09:58:56.659Z,6.82
2023-03-11T10:01:30.022Z,6.71
2023-03-11T10:04:02.061Z,6.66
2023-03-11T10:06:30.035Z,7.05
2023-03-11T10:09:07.443Z,7.52
2023-03-11T10:11:57.205Z,7.39
2023-03-11T10:14:44.983Z,6.76
2023-03-11T10:17:29.514Z,6.50
2023-03-11T10:20:30.125Z,6.20
2023-03-11T10:23:15.267Z,6.18
2023-03-11T10:26:00.524Z,6.21
2023-03-11T10:28:36.614Z,6.17
2023-03-11T10:31:22.027Z,6.52
2023-03-11T10:33:57.863Z,6.81
2023-03-11T10:36:31.419Z,6.84
2023-03-11T10:38:58.088Z,6.72
2023-03-11T10:41:50.605Z,6.51
2023-03-11T10:44:32.419Z,6.61
2023-03-11T10:46:59.010Z,6.89
2023-03-11T10:49:25.631Z,6.65
2023-03-11T10:51:53.649Z,6.66
2023-03-11T10:54:32.676Z,6.79
2023-03-11T10:57:02.357Z,6.74
2023-03-11T10:59:32.050Z,7.08
2023-03-11T11:02:03.980Z,7.55
2023-03-11T11:04:40.270Z,7.46
2023-03-11T11:07:30.460Z,7.35
2023-03-11T11:10:12.083Z,7.66
2023-03-11T11:12:52.414Z,7.90
2023-03-11T11:15:42.150Z,7.75
2023-03-11T11:18:31.172Z,7.82
2023-03-11T11:21:07.957Z,8.14
2023-03-11T11:23:37.187Z,8.09
2023-03-11T11:26:26.302Z,8.35
2023-03-11T11:29:11.092Z,8.73
2023-03-11T11:31:39.830Z,8.43
2023-03-11T11:34:29.259Z,8.59
2023-03-11T11:36:59.545Z,8.86
2023-03-11T11:39:40.330Z,9.40
2023-03-11T11:42:11.223Z,9.09
2023-03-11T11:44:37.608Z,8.83
2023-03-11T11:47:13.103Z,8.35
2023-03-11T11:50:00.609Z,8.33
2023-03-11T11:52:51.395Z,8.29
2023-03-11T11:55:25.258Z,8.42
2023-03-11T11:57:52.489Z,8.58
2023-03-11T12:00:28.138Z,8.84
2023-03-11T12:03:19.583Z,9.40
2023-03-11T12:05:59.043Z,10.14
2023-03-11T12:08:37.644Z,10.21
2023-03-11T12:11:14.172Z,9.80
2023-03-11T12:14:11.637Z,9.99
2023-03-11T12:16:57.129Z,10.13
2023-03-11T12:19:35.080Z,10.25
2023-03-11T12:22:04.545Z,10.17
2023-03-11T12:24:33.945Z,10.13
2023-03-11T12:27:10.312Z,9.70
2023-03-11T12:29:52.281Z,9.72
2023-03-11T12:32:42.343Z,9.67
2023-03-11T12:35:27.614Z,9.70
2023-03-11T12:38:04.357Z,9.64
2023-03-11T12:40:47.618Z,9.58
2023-03-11T12:43:35.216Z,9.79
2023-03-11T12:46:04.431Z,9.72
2023-03-11T12:48:30.883Z,9.46
2023-03-11T12:50:58.473Z,9.06
2023-03-11T12:53:50.500Z,9.30
2023-03-11T12:56:42.405Z,9.29
2023-03-11T12:59:42.809Z,8.64
2023-03-11T13:02:33.850Z,9.06
2023-03-11T13:05:19.058Z,9.31
2023-03-11T13:07:49.508Z,8.94
2023-03-11T13:10:34.754Z,8.66
2023-03-11T13:13:02.342Z,8.54
2023-03-11T13:15:33.175Z,8.36
2023-03-11T13:18:01.261Z,8.45
2023-03-11T13:20:56.216Z,8.29
2023-03-11T13:23:27.659Z,8.17
2023-03-11T13:25:54.043Z,8.05
2023-03-11T13:28:42.118Z,7.94
2023-03-11T13:31:33.342Z,8.18
2023-03-11T13:34:15.472Z,8.42
2023-03-11T13:37:04.557Z,8.33
2023-03-11T13:39:55.146Z,8.17
2023-03-11T13:42:33.327Z,8.57
2023-03-11T13:45:00.086Z,8.65
2023-03-11T13:47:28.886Z,8.48
2023-03-11T13:50:10.196Z,8.53
2023-03-11T13:52:44.262Z,8.71
2023-03-11T13:55:33.730Z,8.97
2023-03-11T13:58:00.371Z,8.68
2023-03-11T14:00:29.827Z,8.92
2023-03-11T14:02:58.942Z,8.52
2023-03-11T14:05:29.931Z,8.12
2023-03-11T14:08:12.034Z,8.10
2023-03-11T14:10:38.630Z,8.41
2023-03-11T14:13:07.518Z,8.19
2023-03-11T14:15:43.981Z,7.84
2023-03-11T14:18:32.855Z,7.76
2023-03-11T14:21:00.315Z,7.84
2023-03-11T14:23:39.724Z,8.28
2023-03-11T14:26:09.674Z,8.43
2023-03-11T14:28:40.434Z,8.16
2023-03-11T14:31:07.257Z,8.16
2023-03-11T14:33:33.771Z,7.94
2023-03-11T14:36:04.824Z,7.82
2023-03-11T14:38:32.663Z,7.91
2023-03-11T14:41:01.431Z,8.13
2023-03-11T14:43:37.547Z,8.00
2023-03-11T14:46:07.381Z,7.68
2023-03-11T14:48:39.382Z,7.65
2023-03-11T14:51:16.096Z,7.72
2023-03-11T14:54:04.153Z,7.72
2023-03-11T14:56:36.322Z,7.92
2023-03-11T14:59:26.828Z,8.08
2023-03-11T15:01:57.149Z,8.12
2023-03-11T15:04:31.453Z,8.07
2023-03-11T15:06:58.843Z,8.05
2023-03-11T15:09:27.124Z,8.04
2023-03-11T15:11:57.553Z,8.01
2023-03-11T15:14:31.670Z,8.03
2023-03-11T15:17:31.494Z,8.07
2023-03-11T15:20:00.626Z,7.82
2023-03-11T15:22:39.843Z,8.02
2023-03-11T15:25:18.343Z,8.22
2023-03-11T15:27:45.620Z,8.07
2023-03-11T15:30:31.389Z,7.92
2023-03-11T15:32:58.865Z,7.83
2023-03-11T15:35:27.969Z,7.63
2023-03-11T15:38:21.004Z,7.68
2023-03-11T15:40:57.370Z,7.52
2023-03-11T15:43:43.593Z,7.44
2023-03-11T15:46:11.110Z,7.48
2023-03-11T15:48:37.607Z,7.37
2023-03-11T15:51:04.303Z,7.13
2023-03-11T15:53:31.077Z,7.08
2023-03-11T15:56:07.529Z,7.07
2023-03-11T15:58:35.935Z,7.04
2023-03-11T16:01:02.776Z,6.96
2023-03-11T16:03:31.340Z,6.84
2023-03-11T16:05:58.084Z,6.86
2023-03-11T16:08:24.740Z,6.86
2023-03-11T16:10:51.144Z,6.79
2023-03-11T16:13:17.862Z,6.92
2023-03-11T16:15:46.850Z,7.12
2023-03-11T16:18:13.527Z,7.12
2023-03-11T16:20:46.784Z,7.07
2023-03-11T16:23:20.141Z,7.04
2023-03-11T16:25:47.567Z,7.01
2023-03-11T16:28:16.372Z,6.98
2023-03-11T16:30:43.443Z,6.92
2023-03-11T16:33:09.991Z,6.82
2023-03-11T16:35:36.605Z,6.74
2023-03-11T16:38:03.089Z,6.76
2023-03-11T16:40:30.783Z,6.70
2023-03-11T16:43:05.569Z,6.70
2023-03-11T16:45:32.292Z,6.64
2023-03-11T16:47:58.983Z,6.70
2023-03-11T16:50:26.733Z,6.72
2023-03-11T16:52:55.093Z,6.69
2023-03-11T16:55:21.710Z,6.56
2023-03-11T16:57:48.223Z,6.61
2023-03-11T17:00:15.361Z,6.61
2023-03-11T17:02:41.817Z,6.47
2023-03-11T17:05:08.972Z,6.44
2023-03-11T17:07:38.814Z,6.44
2023-03-11T17:10:06.531Z,6.34
2023-03-11T17:12:32.980Z,6.34
2023-03-11T17:15:00.145Z,6.29
2023-03-11T17:17:26.579Z,6.19
2023-03-11T17:19:53.058Z,6.07
2023-03-11T17:22:19.442Z,5.91
2023-03-11T17:24:45.858Z,5.69
2023-03-11T17:27:12.384Z,5.45
2023-03-11T17:29:38.901Z,5.26
2023-03-11T17:32:06.562Z,5.08
2023-03-11T17:34:33.030Z,4.93
2023-03-11T17:36:59.497Z,4.74
2023-03-11T17:39:26.086Z,4.60
2023-03-11T17:41:52.603Z,4.51
2023-03-11T17:44:19.113Z,4.38
2023-03-11T17:46:45.587Z,4.30
2023-03-11T17:49:14.381Z,4.21
2023-03-11T17:51:41.017Z,4.10
2023-03-11T17:54:07.431Z,3.99
2023-03-11T17:56:33.865Z,3.89
2023-03-11T17:59:00.367Z,3.78
2023-03-11T18:01:28.302Z,3.65
2023-03-11T18:03:55.352Z,3.60
2023-03-11T18:06:22.745Z,3.60
2023-03-11T18:08:49.875Z,3.66
2023-03-11T18:11:20.298Z,3.71
2023-03-11T18:13:46.858Z,3.71
2023-03-11T18:16:16.489Z,3.70
2023-03-11T18:18:43.765Z,3.68
2023-03-11T18:21:22.478Z,3.60
2023-03-11T18:23:49.207Z,3.49
2023-03-11T18:26:18.276Z,3.48
2023-03-11T18:28:45.314Z,3.48
2023-03-11T18:31:20.504Z,3.50
2023-03-11T18:33:50.232Z,3.47
2023-03-11T18:36:23.407Z,3.41
2023-03-11T18:38:52.561Z,3.32
2023-03-11T18:41:19.366Z,3.25
2023-03-11T18:43:45.991Z,3.15
2023-03-11T18:46:15.354Z,3.06
2023-03-11T18:48:42.039Z,2.97
2023-03-11T18:51:09.273Z,2.90
2023-03-11T18:53:36.220Z,2.79
2023-03-11T18:56:05.904Z,2.79
2023-03-11T18:58:32.984Z,2.81
2023-03-11T19:01:07.753Z,2.83
2023-03-11T19:03:34.268Z,2.78
2023-03-11T19:06:01.346Z,2.77
2023-03-11T19:08:28.616Z,2.76
2023-03-11T19:10:55.294Z,2.68
2023-03-11T19:13:22.291Z,2.64
2023-03-11T19:15:48.865Z,2.62
2023-03-11T19:18:15.451Z,2.66
2023-03-11T19:20:41.950Z,2.70
2023-03-11T19:23:08.902Z,2.70
2023-03-11T19:25:35.698Z,2.60
2023-03-11T19:28:02.093Z,2.51
2023-03-11T19:30:28.621Z,2.50
2023-03-11T19:32:55.183Z,2.47
2023-03-11T19:35:23.277Z,2.42
2023-03-11T19:37:50.756Z,2.34
2023-03-11T19:40:17.996Z,2.31
2023-03-11T19:42:44.483Z,2.28
2023-03-11T19:45:11.239Z,2.29
2023-03-11T19:47:38.214Z,2.25
2023-03-11T19:50:05.262Z,2.16
2023-03-11T19:52:31.722Z,2.10
2023-03-11T19:54:58.291Z,2.00
2023-03-11T19:57:24.840Z,1.95
2023-03-11T19:59:51.253Z,1.89
2023-03-11T20:02:17.751Z,1.84
2023-03-11T20:04:44.198Z,1.77
2023-03-11T20:07:10.658Z,1.69
2023-03-11T20:09:37.101Z,1.60
2023-03-11T20:12:03.662Z,1.56
2023-03-11T20:14:30.281Z,1.51
2023-03-11T20:16:56.795Z,1.50
2023-03-11T20:19:23.245Z,1.51
2023-03-11T20:21:49.919Z,1.51
2023-03-11T20:24:16.524Z,1.48
2023-03-11T20:26:43.112Z,1.41
2023-03-11T20:29:09.922Z,1.28
2023-03-11T20:31:37.079Z,1.20
2023-03-11T20:34:03.669Z,1.15
2023-03-11T20:36:33.105Z,1.17
2023-03-11T20:39:00.193Z,1.21
2023-03-11T20:41:28.083Z,1.24
2023-03-11T20:43:56.788Z,1.15
2023-03-11T20:46:23.761Z,1.07
2023-03-11T20:48:50.383Z,1.05
2023-03-11T20:51:20.372Z,1.02
2023-03-11T20:53:47.795Z,1.13
2023-03-11T20:56:17.238Z,1.22
2023-03-11T20:58:45.686Z,1.27
2023-03-11T21:01:19.587Z,1.31
2023-03-11T21:03:46.672Z,1.29
2023-03-11T21:06:26.107Z,1.32
2023-03-11T21:08:56.831Z,1.23
2023-03-11T21:11:24.692Z,1.16
2023-03-11T21:13:51.850Z,1.09
2023-03-11T21:16:18.491Z,1.06
2023-03-11T21:18:48.540Z,1.06
2023-03-11T21:21:17.471Z,1.00
2023-03-11T21:23:44.298Z,0.99
2023-03-11T21:26:12.709Z,1.00
2023-03-11T21:28:40.181Z,0.99
2023-03-11T21:31:11.037Z,0.93
2023-03-11T21:33:39.191Z,0.92
2023-03-11T21:36:07.161Z,0.89
2023-03-11T21:38:33.963Z,0.87
2023-03-11T21:41:12.336Z,0.89
2023-03-11T21:43:40.236Z,0.87
2023-03-11T21:46:07.801Z,0.88
2023-03-11T21:48:34.778Z,0.88
2023-03-11T21:51:01.959Z,0.90
2023-03-11T21:53:30.122Z,0.90
2023-03-11T21:55:56.876Z,0.88
2023-03-11T21:58:23.632Z,0.92
2023-03-11T22:00:50.522Z,0.89
2023-03-11T22:03:16.979Z,0.89
2023-03-11T22:05:43.603Z,0.87
2023-03-11T22:08:11.408Z,0.87
2023-03-11T22:10:38.702Z,0.91
2023-03-11T22:13:05.454Z,0.91
2023-03-11T22:15:32.041Z,0.88
2023-03-11T22:17:58.740Z,0.86
2023-03-11T22:20:25.471Z,0.81
2023-03-11T22:22:54.100Z,0.77
2023-03-11T22:25:20.609Z,0.72
2023-03-11T22:27:47.068Z,0.67
2023-03-11T22:30:13.643Z,0.61
2023-03-11T22:32:40.224Z,0.57
2023-03-11T22:35:06.912Z,0.56
2023-03-11T22:37:33.352Z,0.56
2023-03-11T22:39:59.730Z,0.56
2023-03-11T22:42:26.159Z,0.60
2023-03-11T22:44:52.602Z,0.63
2023-03-11T22:47:19.088Z,0.67
2023-03-11T22:49:45.521Z,0.68
2023-03-11T22:52:11.929Z,0.67
2023-03-11T22:54:38.367Z,0.63
2023-03-11T22:57:04.943Z,0.64
2023-03-11T22:59:31.474Z,0.66
2023-03-11T23:01:58.403Z,0.66
2023-03-11T23:04:24.828Z,0.65
2023-03-11T23:06:51.339Z,0.69
2023-03-11T23:09:17.748Z,0.72
2023-03-11T23:11:44.273Z,0.72
2023-03-11T23:14:10.724Z,0.71
2023-03-11T23:16:37.170Z,0.67
2023-03-11T23:19:03.574Z,0.67
2023-03-11T23:21:32.403Z,0.65
2023-03-11T23:24:01.171Z,0.64
2023-03-11T23:26:29.663Z,0.61
2023-03-11T23:28:56.567Z,0.61
2023-03-11T23:31:25.693Z,0.67
2023-03-11T23:33:52.398Z,0.69
2023-03-11T23:36:21.498Z,0.71
2023-03-11T23:38:48.045Z,0.75
2023-03-11T23:41:17.428Z,0.83
2023-03-11T23:43:43.984Z,0.90
2023-03-11T23:46:10.575Z,0.96
2023-03-11T23:48:37.947Z,0.95
2023-03-11T23:51:05.073Z,0.96
2023-03-11T23:53:32.178Z,0.96
2023-03-11T23:55:58.926Z,0.94
2023-03-11T23:58:25.662Z,0.93
